createdAt,value
2018-04-26T00:02:27.363Z,14.95
2018-04-26T00:04:28.074Z,16.67
2018-04-26T00:08:28.858Z,15.99
2018-04-26T00:14:29.630Z,15.67
2018-04-26T00:18:30.359Z,15.27
2018-04-26T00:24:31.174Z,15.2
2018-04-26T00:30:32.256Z,15.4
2018-04-26T00:34:33.022Z,15.37
2018-04-26T00:40:33.723Z,17.45
2018-04-26T00:44:34.483Z,14.54
2018-04-26T00:46:35.122Z,16.68
2018-04-26T00:50:35.872Z,15.14
2018-04-26T00:56:36.613Z,16.59
2018-04-26T01:00:37.346Z,15.95
2018-04-26T01:06:38.044Z,16.85
2018-04-26T01:12:38.833Z,17.04
2018-04-26T01:16:39.550Z,16.78
2018-04-26T01:22:40.249Z,16.81
2018-04-26T01:26:42.093Z,15.53
2018-04-26T01:28:43.929Z,16.56
2018-04-26T01:32:44.859Z,16.56
2018-04-26T01:38:45.607Z,17.33
2018-04-26T01:42:46.346Z,16.94
2018-04-26T01:48:47.156Z,17.01
2018-04-26T01:52:47.969Z,17.71
2018-04-26T01:58:50.109Z,17.36
2018-04-26T01:58:50.306Z,17.11
2018-04-26T02:04:51.054Z,16.98
2018-04-26T02:08:51.777Z,16.09
2018-04-26T02:14:52.586Z,17.75
2018-04-26T02:20:53.365Z,17.95
2018-04-26T02:24:54.102Z,17.14
2018-04-26T02:30:55.022Z,17.92
2018-04-26T02:34:55.830Z,17.9
2018-04-26T02:36:56.537Z,17.26
2018-04-26T02:40:57.218Z,16.87
2018-04-26T02:46:57.956Z,17.92
2018-04-26T02:50:58.658Z,18.38
2018-04-26T02:56:59.487Z,18.07
2018-04-26T03:01:00.329Z,16.74
2018-04-26T03:03:01.071Z,18.34
2018-04-26T03:07:01.838Z,18.7
2018-04-26T03:13:02.619Z,18.23
2018-04-26T03:17:03.511Z,17.45
2018-04-26T03:23:04.355Z,17.52
2018-04-26T03:29:05.121Z,17.25
2018-04-26T03:33:05.857Z,17.68
2018-04-26T03:39:06.698Z,17.5
2018-04-26T03:43:07.428Z,16.6
2018-04-26T03:45:08.349Z,16.93
2018-04-26T03:49:09.071Z,17.61
2018-04-26T03:55:09.877Z,18.43
2018-04-26T03:59:10.585Z,17.05
2018-04-26T04:05:11.372Z,20.13
2018-04-26T04:11:12.071Z,17.87
2018-04-26T04:15:13.096Z,17.71
2018-04-26T04:21:13.838Z,17.56
2018-04-26T04:25:14.740Z,16.64
2018-04-26T04:27:15.491Z,17.65
2018-04-26T04:31:16.382Z,18.31
2018-04-26T04:37:17.149Z,18.25
2018-04-26T04:41:18.018Z,17.79
2018-04-26T04:47:18.748Z,19.76
2018-04-26T04:51:19.623Z,18.42
2018-04-26T04:53:20.522Z,19.95
2018-04-26T04:57:21.346Z,19.98
2018-04-26T05:03:22.105Z,19.8
2018-04-26T05:07:22.943Z,18.94
2018-04-26T05:13:23.633Z,20.5
2018-04-26T05:19:24.427Z,20.18
2018-04-26T05:23:25.280Z,19.96
2018-04-26T05:29:26.160Z,20.83
2018-04-26T05:33:26.923Z,20.82
2018-04-26T05:35:27.678Z,20.34
2018-04-26T05:39:28.376Z,22.56
2018-04-26T05:45:29.292Z,20.21
2018-04-26T05:49:30.165Z,20.26
2018-04-26T05:55:30.856Z,22.28
2018-04-26T05:59:31.738Z,21.27
2018-04-26T06:01:32.450Z,22.46
2018-04-26T06:05:33.180Z,21.56
2018-04-26T06:11:33.985Z,22.31
2018-04-26T06:15:34.761Z,22.01
2018-04-26T06:21:35.638Z,21.14
2018-04-26T06:27:36.560Z,23.5
2018-04-26T06:31:37.290Z,23.05
2018-04-26T06:37:38.159Z,24.48
2018-04-26T06:41:38.908Z,23.55
2018-04-26T06:43:39.715Z,26.56
2018-04-26T06:47:40.423Z,25.13
2018-04-26T06:53:41.344Z,25.32
2018-04-26T06:57:42.043Z,26.06
2018-04-26T07:03:42.887Z,25.43
2018-04-26T07:07:43.760Z,24.52
2018-04-26T07:09:44.499Z,23.54
2018-04-26T07:13:45.203Z,25.67
2018-04-26T07:19:51.557Z,25.02
2018-04-26T07:23:52.430Z,25.42
2018-04-26T07:29:53.348Z,24.95
2018-04-26T07:35:54.237Z,25.44
2018-04-26T07:39:54.969Z,24.3
2018-04-26T07:45:55.753Z,24.77
2018-04-26T07:49:56.562Z,25.26
2018-04-26T07:51:57.284Z,23.08
2018-04-26T07:55:58.182Z,23.22
2018-04-26T08:01:59.087Z,20.58
2018-04-26T08:06:00.248Z,19.86
2018-04-26T08:12:01.156Z,18.49
2018-04-26T08:16:01.988Z,17.82
2018-04-26T08:18:02.736Z,19.89
2018-04-26T08:22:03.502Z,19.14
2018-04-26T08:28:04.341Z,20.62
2018-04-26T08:32:05.160Z,17.58
2018-04-26T08:38:05.939Z,15.15
2018-04-26T08:44:06.744Z,12.62
2018-04-26T08:48:07.444Z,10.74
2018-04-26T08:54:08.328Z,13.32
2018-04-26T08:58:09.024Z,10.88
2018-04-26T09:00:10.159Z,11.3
2018-04-26T09:04:10.916Z,13.45
2018-04-26T09:10:11.782Z,10.56
2018-04-26T09:14:12.544Z,13.13
2018-04-26T09:20:13.312Z,10.66
2018-04-26T09:24:14.355Z,9.85
2018-04-26T09:26:15.038Z,12.77
2018-04-26T09:30:16.239Z,11.52
2018-04-26T09:36:16.921Z,13.21
2018-04-26T09:40:17.680Z,13.15
2018-04-26T09:46:18.613Z,12.84
2018-04-26T09:52:19.447Z,11.7
2018-04-26T09:56:20.214Z,10.28
2018-04-26T10:02:21.076Z,11.76
2018-04-26T10:06:21.904Z,10.87
2018-04-26T10:08:22.872Z,11.64
2018-04-26T10:12:23.670Z,12.06
2018-04-26T10:18:24.509Z,10.61
2018-04-26T10:22:25.290Z,11.79
2018-04-26T10:28:26.103Z,11.2
2018-04-26T10:34:26.994Z,9.69
2018-04-26T10:38:27.697Z,8.72
2018-04-26T10:44:28.540Z,10.5
2018-04-26T10:48:29.252Z,11.74
2018-04-26T10:54:30.199Z,10.89
2018-04-26T11:00:31.622Z,11.23
2018-04-26T11:04:32.361Z,10.82
2018-04-26T11:10:33.574Z,11.48
2018-04-26T11:14:34.345Z,13
2018-04-26T11:16:34.993Z,11.66
2018-04-26T11:20:35.966Z,11.73
2018-04-26T11:26:36.737Z,12.04
2018-04-26T11:30:37.657Z,11.18
2018-04-26T11:36:38.568Z,11.62
2018-04-26T11:42:39.536Z,10.77
2018-04-26T11:46:43.828Z,10.73
2018-04-26T11:52:44.737Z,10.55
2018-04-26T11:56:46.866Z,10.1
2018-04-26T12:02:48.067Z,9.79
2018-04-26T12:08:48.760Z,10.01
2018-04-26T12:12:49.450Z,9.52
2018-04-26T12:18:50.323Z,9.37
2018-04-26T12:22:51.288Z,10.12
2018-04-26T12:24:52.069Z,12.31
2018-04-26T12:28:53.091Z,11.37
2018-04-26T12:34:53.809Z,11.53
2018-04-26T12:38:54.815Z,10.58
2018-04-26T12:44:55.787Z,8.41
2018-04-26T12:50:56.616Z,10.88
2018-04-26T12:54:57.423Z,10.64
2018-04-26T13:00:58.246Z,9.51
2018-04-26T13:04:59.786Z,9.08
2018-04-26T13:11:00.568Z,9.95
2018-04-26T13:17:01.501Z,9.92
2018-04-26T13:21:02.250Z,9.37
2018-04-26T13:27:03.363Z,10.08
2018-04-26T13:31:04.251Z,8.74
2018-04-26T13:33:05.080Z,11.34
2018-04-26T13:37:05.870Z,11.39
2018-04-26T13:43:06.958Z,17.78
2018-04-26T13:47:07.812Z,21.14
2018-04-26T13:53:08.827Z,8.23
2018-04-26T13:59:09.791Z,9.63
2018-04-26T14:03:10.709Z,8.48
2018-04-26T14:09:11.652Z,13.18
2018-04-26T14:13:12.378Z,11.27
2018-04-26T14:15:13.820Z,13.95
2018-04-26T14:19:14.760Z,9.41
2018-04-26T14:25:15.675Z,8.74
2018-04-26T14:29:16.444Z,9.15
2018-04-26T14:35:17.346Z,9.31
2018-04-26T14:39:18.118Z,7.82
2018-04-26T14:41:18.805Z,9.76
2018-04-26T14:45:20.037Z,9.87
2018-04-26T14:51:20.912Z,10.14
2018-04-26T14:55:21.821Z,9.85
2018-04-26T15:01:22.741Z,11.38
2018-04-26T15:07:23.766Z,9.26
2018-04-26T15:11:24.490Z,9.16
2018-04-26T15:17:25.220Z,10.9
2018-04-26T15:21:26.043Z,10.08
2018-04-26T15:23:26.732Z,10.24
2018-04-26T15:27:27.664Z,8.77
2018-04-26T15:33:28.477Z,10.85
2018-04-26T15:37:29.320Z,11.54
2018-04-26T15:43:30.202Z,9.84
2018-04-26T15:49:31.199Z,8.53
2018-04-26T15:53:31.879Z,7.83
2018-04-26T15:59:32.768Z,10.05
2018-04-26T16:03:33.812Z,16.5
2018-04-26T16:09:34.643Z,11.75
2018-04-26T16:15:35.311Z,11.49
2018-04-26T16:19:36.124Z,12.5
2018-04-26T16:25:36.927Z,10.2
2018-04-26T16:29:37.641Z,9.69
2018-04-26T16:31:38.411Z,12.05
2018-04-26T16:35:39.289Z,10.21
2018-04-26T16:41:40.717Z,10.47
2018-04-26T16:45:41.463Z,10.69
2018-04-26T16:51:42.402Z,10.22
2018-04-26T16:57:43.216Z,12.45
2018-04-26T17:01:43.949Z,10.23
2018-04-26T17:07:44.720Z,11.71
2018-04-26T17:11:45.741Z,15.12
2018-04-26T17:13:46.514Z,11.82
2018-04-26T17:17:47.236Z,12.88
2018-04-26T17:23:48.055Z,13.91
2018-04-26T17:27:48.784Z,13.43
2018-04-26T17:33:49.492Z,13.99
2018-04-26T17:39:50.327Z,14.98
2018-04-26T17:43:51.091Z,14.91
2018-04-26T17:49:52.284Z,16.09
2018-04-26T17:53:53.017Z,16.19
2018-04-26T17:59:53.942Z,13.37
2018-04-26T18:05:54.794Z,15.4
2018-04-26T18:09:55.765Z,15.6
2018-04-26T18:15:56.493Z,14.07
2018-04-26T18:20:01.043Z,14.28
2018-04-26T18:21:58.508Z,14.21
2018-04-26T18:25:59.490Z,14.65
2018-04-26T18:32:00.431Z,15.7
2018-04-26T18:36:01.371Z,15.6
2018-04-26T18:42:01.995Z,15.79
2018-04-26T18:48:03.319Z,15.34
2018-04-26T18:52:04.737Z,16.82
2018-04-26T18:58:05.817Z,15.67
2018-04-26T19:02:07.567Z,16.67
2018-04-26T19:08:08.461Z,16.97
2018-04-26T19:14:09.347Z,18.6
2018-04-26T19:18:10.190Z,19.99
2018-04-26T19:24:11.005Z,17.93
2018-04-26T19:28:11.775Z,17.36
2018-04-26T19:30:12.785Z,18.54
2018-04-26T19:34:13.609Z,17.9
2018-04-26T19:40:14.569Z,17.06
2018-04-26T19:44:15.562Z,18.4
2018-04-26T19:50:16.257Z,18.69
2018-04-26T19:56:17.017Z,19.59
2018-04-26T20:00:18.103Z,20.57
2018-04-26T20:06:18.904Z,19.12
2018-04-26T20:10:19.610Z,18.37
2018-04-26T20:12:20.362Z,20.9
2018-04-26T20:16:21.067Z,18.65
2018-04-26T20:22:22.042Z,18.81
2018-04-26T20:26:22.772Z,18.78
2018-04-26T20:32:23.553Z,19.67
2018-04-26T20:36:24.262Z,20.18
2018-04-26T20:38:24.987Z,19.83
2018-04-26T20:42:25.840Z,19.75
2018-04-26T20:48:26.930Z,19.88
2018-04-26T20:52:27.769Z,20.22
2018-04-26T20:58:28.552Z,19.09
2018-04-26T21:04:29.328Z,20.49
2018-04-26T21:08:30.065Z,19.3
2018-04-26T21:14:30.808Z,21.43
2018-04-26T21:18:31.596Z,20.87
2018-04-26T21:20:32.520Z,20.2
2018-04-26T21:24:33.239Z,19.73
2018-04-26T21:30:34.042Z,21.55
2018-04-26T21:34:34.699Z,20.34
2018-04-26T21:40:35.451Z,20.09
2018-04-26T21:44:36.260Z,19.09
2018-04-26T21:46:36.905Z,21.7
2018-04-26T21:50:37.650Z,20.89
2018-04-26T21:56:38.397Z,21.82
2018-04-26T22:00:39.160Z,20.37
2018-04-26T22:06:39.853Z,19.63
2018-04-26T22:12:40.635Z,22.53
2018-04-26T22:16:41.404Z,22.92
2018-04-26T22:22:42.238Z,20.35
2018-04-26T22:26:42.995Z,19.09
2018-04-26T22:28:43.731Z,20.74
2018-04-26T22:32:44.660Z,19.74
2018-04-26T22:38:45.436Z,22.09
2018-04-26T22:42:46.278Z,20.5
2018-04-26T22:48:47.071Z,21.1
2018-04-26T22:54:47.860Z,20.51
2018-04-26T22:58:48.915Z,19.97
2018-04-26T23:04:49.838Z,21.96
2018-04-26T23:08:50.668Z,21.56
2018-04-26T23:14:51.456Z,21.98
2018-04-26T23:20:52.403Z,22.14
2018-04-26T23:24:53.027Z,20.49
2018-04-26T23:30:53.825Z,21.19
2018-04-26T23:34:54.501Z,20.93
2018-04-26T23:36:55.240Z,23.92
2018-04-26T23:40:56.168Z,24.05
2018-04-26T23:46:56.904Z,23.87
2018-04-26T23:50:57.624Z,23.46
2018-04-26T23:56:58.401Z,23.99
